Time;durP1;ratioP1;P1;durP2;ratioP2;P2;SDS_P1;SDS_P2;PMS_P1;PMS_P2;Temp;Humidity;BMP_temperature;BMP_pressure;BME280_temperature;BME280_humidity;BME280_pressure;Samples;Min_cycle;Max_cycle;Signal;HPM_P1;HPM_P2
2023/01/11 00:01:18;;;;;;;;;0.67;0.00;;;;;14.32;100.00;100992.31;5099993;27;45401;-78
2023/01/11 00:03:43;;;;;;;;;0.00;0.00;;;;;14.38;100.00;101002.63;5096092;27;45364;-80
2023/01/11 00:06:10;;;;;;;;;1.00;1.00;;;;;14.35;100.00;100991.13;5097345;27;45370;-78
2023/01/11 00:08:36;;;;;;;;;1.00;0.67;;;;;14.34;100.00;100986.69;5078290;27;45660;-78
2023/01/11 00:11:02;;;;;;;;;1.00;1.00;;;;;14.32;100.00;100996.91;5100220;27;45486;-80
2023/01/11 00:13:29;;;;;;;;;0.00;0.00;;;;;14.37;100.00;100992.69;5080571;27;45549;-79
2023/01/11 00:15:54;;;;;;;;;1.00;1.00;;;;;14.34;100.00;100982.06;5101195;27;45563;-78
2023/01/11 00:18:20;;;;;;;;;1.00;1.00;;;;;14.32;100.00;100992.31;5098293;27;45294;-79
2023/01/11 00:20:46;;;;;;;;;2.00;1.00;;;;;14.35;100.00;100983.78;5100940;27;45384;-77
2023/01/11 00:23:11;;;;;;;;;1.00;1.00;;;;;14.34;100.00;100986.69;5103892;27;45368;-79
2023/01/11 00:25:36;;;;;;;;;0.67;0.67;;;;;14.37;100.00;100967.22;5082462;28;47946;-78
2023/01/11 00:28:02;;;;;;;;;1.67;0.00;;;;;14.39;100.00;100967.97;5101034;27;45991;-79
2023/01/11 00:30:27;;;;;;;;;2.00;1.00;;;;;14.47;100.00;100978.03;5104354;27;45502;-79
2023/01/11 00:32:58;;;;;;;;;5.00;1.00;;;;;14.32;100.00;100964.13;5100786;27;45387;-79
2023/01/11 00:35:24;;;;;;;;;1.00;1.00;;;;;14.34;100.00;100967.53;5101812;27;46716;-78
2023/01/11 00:37:52;;;;;;;;;1.00;1.00;;;;;14.33;100.00;100969.44;5081311;27;45405;-78
2023/01/11 00:40:17;;;;;;;;;2.00;0.33;;;;;14.37;100.00;100967.22;5102968;27;45466;-77
2023/01/11 00:48:23;;;;;;;;;1.00;1.00;;;;;14.35;100.00;100951.00;5093955;27;45325;-79
2023/01/11 00:50:54;;;;;;;;;0.00;0.00;;;;;14.23;100.00;100954.22;5095301;27;45458;-78
2023/01/11 00:53:19;;;;;;;;;1.00;1.00;;;;;14.27;100.00;100950.97;5094241;27;45319;-79
2023/01/11 00:55:44;;;;;;;;;0.00;0.00;;;;;14.31;100.00;100951.50;5075220;27;46537;-78
2023/01/11 00:58:10;;;;;;;;;2.00;2.00;;;;;14.24;100.00;100950.47;5083712;27;45306;-78
2023/01/11 01:00:35;;;;;;;;;0.00;0.00;;;;;14.31;100.00;100943.31;5094272;27;45975;-78
2023/01/11 01:03:00;;;;;;;;;2.67;1.00;;;;;14.03;100.00;100932.63;5091599;27;45373;-78
2023/01/11 01:05:26;;;;;;;;;0.00;0.00;;;;;14.12;100.00;100936.25;5091324;27;45337;-78
2023/01/11 01:07:52;;;;;;;;;0.33;0.33;;;;;14.17;100.00;100930.28;5092768;27;45291;-79
2023/01/11 01:10:18;;;;;;;;;1.00;1.00;;;;;14.15;100.00;100926.88;5091428;27;46050;-79
2023/01/11 01:15:28;;;;;;;;;0.00;0.00;;;;;13.97;100.00;100932.44;5091976;27;45505;-78
2023/01/11 01:17:55;;;;;;;;;1.33;0.00;;;;;13.98;100.00;100939.63;5099006;27;45501;-78
2023/01/11 01:20:22;;;;;;;;;1.00;1.00;;;;;14.04;100.00;100942.53;5096720;27;45476;-78
2023/01/11 01:22:48;;;;;;;;;2.00;0.67;;;;;14.13;100.00;100953.50;5080266;27;45274;-78
2023/01/11 01:25:14;;;;;;;;;0.67;0.67;;;;;14.07;100.00;100933.16;5099236;27;46551;-78
2023/01/11 01:27:40;;;;;;;;;0.33;0.33;;;;;14.01;100.00;100931.97;5102482;27;45298;-79
2023/01/11 01:30:06;;;;;;;;;1.00;0.00;;;;;14.11;100.00;100922.75;5069313;27;45279;-79
2023/01/11 01:32:31;;;;;;;;;0.00;0.00;;;;;14.04;100.00;100912.47;5095838;27;45471;-78
2023/01/11 01:34:57;;;;;;;;;0.67;0.67;;;;;14.10;100.00;100904.66;5087802;27;45418;-79
2023/01/11 01:37:22;;;;;;;;;0.00;0.00;;;;;14.09;100.00;100901.06;5101498;27;45339;-78
2023/01/11 01:39:47;;;;;;;;;0.00;0.00;;;;;14.07;100.00;100899.53;5088938;27;45404;-79
2023/01/11 01:42:16;;;;;;;;;1.00;0.00;;;;;14.18;100.00;100908.25;5096749;27;45256;-78
2023/01/11 01:45:17;;;;;;;;;0.00;0.00;;;;;14.07;100.00;100910.44;5087815;27;46342;-78
2023/01/11 01:47:50;;;;;;;;;0.00;0.00;;;;;14.14;100.00;100917.81;5091498;27;45372;-78
2023/01/11 01:50:39;;;;;;;;;0.00;0.00;;;;;14.03;100.00;100910.78;5088802;27;45373;-78
2023/01/11 01:53:11;;;;;;;;;0.00;0.00;;;;;13.99;100.00;100906.69;5095517;27;45271;-78
2023/01/11 01:55:42;;;;;;;;;0.00;0.00;;;;;13.97;100.00;100905.97;5069491;28;46333;-78
2023/01/11 01:58:12;;;;;;;;;1.67;0.00;;;;;13.95;100.00;100913.47;5070605;28;45593;-78
2023/01/11 02:00:41;;;;;;;;;0.00;0.00;;;;;14.01;100.00;100915.56;5092144;27;45378;-78
2023/01/11 02:03:11;;;;;;;;;0.00;0.00;;;;;14.01;100.00;100917.44;5089244;27;45161;-78
2023/01/11 02:05:36;;;;;;;;;1.33;0.33;;;;;14.10;100.00;100918.31;5098967;27;46571;-78
2023/01/11 02:08:08;;;;;;;;;0.00;0.00;;;;;14.17;100.00;100917.47;5089195;27;45450;-78
2023/01/11 02:10:33;;;;;;;;;1.00;1.00;;;;;14.04;100.00;100917.94;5072236;28;45475;-78
2023/01/11 02:13:01;;;;;;;;;0.00;0.00;;;;;14.22;100.00;100922.44;5085134;27;45313;-78
2023/01/11 02:15:28;;;;;;;;;0.00;0.00;;;;;14.11;100.00;100922.75;5090221;27;47542;-78
2023/01/11 02:17:53;;;;;;;;;0.00;0.00;;;;;14.19;100.00;100923.63;5083784;27;45448;-77
2023/01/11 02:20:18;;;;;;;;;0.00;0.00;;;;;14.25;100.00;100930.28;5094891;27;47688;-79
2023/01/11 02:23:08;;;;;;;;;0.00;0.00;;;;;14.28;100.00;100932.69;5077791;27;45428;-77
2023/01/11 02:26:11;;;;;;;;;0.00;0.00;;;;;14.32;100.00;100917.66;5076536;28;47383;-78
2023/01/11 02:28:58;;;;;;;;;1.00;0.00;;;;;14.32;100.00;100914.91;5071761;27;45336;-78
2023/01/11 02:31:43;;;;;;;;;0.00;0.00;;;;;14.26;100.00;100921.06;5094307;27;45545;-79
2023/01/11 02:35:05;;;;;;;;;0.00;0.00;;;;;14.40;100.00;100925.91;5102551;27;45229;-79
2023/01/11 02:37:46;;;;;;;;;0.00;0.00;;;;;14.31;100.00;100908.63;5022740;28;47033;-79
2023/01/11 02:40:11;;;;;;;;;0.00;0.00;;;;;14.31;100.00;100910.50;5040805;28;45373;-79
2023/01/11 02:46:07;;;;;;;;;0.00;0.00;;;;;14.28;100.00;100903.50;5097543;27;45393;-79
2023/01/11 02:48:51;;;;;;;;;0.00;0.00;;;;;14.44;100.00;100910.88;5084546;27;47380;-79
2023/01/11 02:51:30;;;;;;;;;0.00;0.00;;;;;14.40;100.00;100909.50;5075935;27;45334;-80
2023/01/11 02:54:04;;;;;;;;;0.00;0.00;;;;;14.34;100.00;100907.41;5097275;27;45298;-79
2023/01/11 02:56:36;;;;;;;;;0.00;0.00;;;;;14.42;100.00;100902.00;5082889;27;45317;-79
2023/01/11 02:59:03;;;;;;;;;0.00;0.00;;;;;14.38;100.00;100917.91;5089996;27;45581;-79
2023/01/11 03:01:29;;;;;;;;;0.00;0.00;;;;;14.37;100.00;100907.94;5094886;27;45431;-80
2023/01/11 03:03:55;;;;;;;;;0.00;0.00;;;;;14.50;100.00;100906.63;5083611;27;45250;-79
2023/01/11 03:06:30;;;;;;;;;0.00;0.00;;;;;14.51;100.00;100906.44;5098387;27;45307;-79
2023/01/11 03:09:05;;;;;;;;;0.00;0.00;;;;;14.51;100.00;100897.41;5065502;28;48106;-79
2023/01/11 03:14:43;;;;;;;;;0.00;0.00;;;;;14.49;100.00;100894.81;5087029;27;45301;-79
2023/01/11 03:17:21;;;;;;;;;0.00;0.00;;;;;14.45;100.00;100888.00;5077413;27;45220;-80
2023/01/11 03:19:51;;;;;;;;;0.00;0.00;;;;;14.53;100.00;100896.22;5094344;27;46782;-79
2023/01/11 03:22:46;;;;;;;;;0.00;0.00;;;;;14.54;100.00;100891.59;5084839;27;45476;-79
2023/01/11 03:25:20;;;;;;;;;0.00;0.00;;;;;14.57;100.00;100878.41;5081604;27;45345;-80
2023/01/11 03:28:14;;;;;;;;;0.00;0.00;;;;;14.52;100.00;100886.28;5080621;27;45522;-80
2023/01/11 03:30:59;;;;;;;;;0.33;0.00;;;;;14.57;100.00;100900.28;5079551;27;48000;-79
2023/01/11 03:34:05;;;;;;;;;0.00;0.00;;;;;14.63;100.00;100902.34;5096394;27;45641;-77
2023/01/11 03:36:36;;;;;;;;;0.00;0.00;;;;;14.58;100.00;100904.75;5075934;27;45483;-78
2023/01/11 03:39:15;;;;;;;;;0.00;0.00;;;;;14.46;100.00;100911.59;5082292;27;45513;-78
2023/01/11 03:41:43;;;;;;;;;0.00;0.00;;;;;14.48;100.00;100900.47;5091912;27;45568;-78
2023/01/11 03:44:13;;;;;;;;;0.00;0.00;;;;;14.44;100.00;100908.16;5084147;27;45335;-78
2023/01/11 03:46:47;;;;;;;;;0.00;0.00;;;;;14.49;100.00;100910.38;5090642;27;45426;-78
2023/01/11 03:49:21;;;;;;;;;0.00;0.00;;;;;14.50;100.00;100902.00;5086031;27;45635;-78
2023/01/11 03:51:49;;;;;;;;;0.00;0.00;;;;;14.51;100.00;100903.72;5100796;27;46812;-77
2023/01/11 03:54:22;;;;;;;;;0.00;0.00;;;;;14.55;100.00;100904.22;5086091;27;45548;-78
2023/01/11 03:57:10;;;;;;;;;0.00;0.00;;;;;14.47;100.00;100905.06;5081870;27;44798;-77
2023/01/11 03:59:36;;;;;;;;;0.00;0.00;;;;;14.45;100.00;100912.59;5091331;27;45355;-77
2023/01/11 04:02:01;;;;;;;;;0.00;0.00;;;;;14.36;100.00;100917.16;5076266;27;47249;-78
2023/01/11 04:04:27;;;;;;;;;0.00;0.00;;;;;14.33;100.00;100912.03;5084638;27;45355;-78
2023/01/11 04:06:52;;;;;;;;;0.00;0.00;;;;;14.29;100.00;100907.06;5094694;27;45358;-79
2023/01/11 04:09:18;;;;;;;;;0.00;0.00;;;;;14.30;100.00;100908.78;5085086;27;45218;-78
2023/01/11 04:11:44;;;;;;;;;0.00;0.00;;;;;14.38;100.00;100908.84;5094955;27;47210;-78
2023/01/11 04:14:09;;;;;;;;;0.00;0.00;;;;;14.33;100.00;100913.91;5083371;27;45180;-79
2023/01/11 04:16:35;;;;;;;;;0.00;0.00;;;;;14.32;100.00;100909.44;5090839;27;45597;-77
2023/01/11 04:19:01;;;;;;;;;17.67;17.67;;;;;14.32;100.00;100901.25;5075497;27;45597;-78
2023/01/11 04:21:27;;;;;;;;;0.00;0.00;;;;;14.21;100.00;100915.25;5075179;27;46998;-77
2023/01/11 04:23:53;;;;;;;;;0.00;0.00;;;;;14.23;100.00;100913.22;5093263;27;45625;-78
2023/01/11 04:26:18;;;;;;;;;0.00;0.00;;;;;14.14;100.00;100906.03;5090356;27;45372;-78
2023/01/11 04:28:44;;;;;;;;;0.00;0.00;;;;;14.25;100.00;100902.97;5075507;27;45371;-78
2023/01/11 04:31:09;;;;;;;;;0.00;0.00;;;;;14.25;100.00;100922.09;5070762;27;47102;-78
2023/01/11 04:33:34;;;;;;;;;0.00;0.00;;;;;14.26;100.00;100926.53;5092931;27;45396;-77
2023/01/11 04:36:05;;;;;;;;;1.00;0.00;;;;;14.29;100.00;100926.22;5071854;27;46333;-78
2023/01/11 04:38:32;;;;;;;;;0.00;0.00;;;;;14.34;100.00;100929.28;5091672;27;45535;-76
2023/01/11 04:43:42;;;;;;;;;0.00;0.00;;;;;14.38;100.00;100947.09;5087094;27;45444;-78
2023/01/11 04:46:09;;;;;;;;;0.00;0.00;;;;;14.06;100.00;100952.44;5078718;27;45463;-78
2023/01/11 04:48:35;;;;;;;;;1.00;0.00;;;;;13.90;100.00;100983.28;5087637;27;45601;-78
2023/01/11 04:51:01;;;;;;;;;0.00;0.00;;;;;13.69;100.00;100983.69;5098753;27;45662;-78
2023/01/11 04:53:26;;;;;;;;;0.00;0.00;;;;;13.59;100.00;100961.13;5100345;27;45356;-79
2023/01/11 04:55:52;;;;;;;;;0.00;0.00;;;;;13.62;100.00;100983.50;5098621;27;45415;-78
2023/01/11 04:58:17;;;;;;;;;0.00;0.00;;;;;13.56;100.00;100981.44;5087296;27;45195;-80
2023/01/11 05:00:44;;;;;;;;;1.00;0.00;;;;;13.57;100.00;100998.66;5082858;27;47995;-79
2023/01/11 05:03:09;;;;;;;;;0.00;0.00;;;;;13.59;100.00;101002.91;5066722;28;45411;-78
2023/01/11 05:05:35;;;;;;;;;0.00;0.00;;;;;13.45;100.00;100987.13;5098759;27;45246;-78
2023/01/11 05:08:00;;;;;;;;;0.00;0.00;;;;;13.46;100.00;101007.09;5083599;27;45361;-79
2023/01/11 05:10:25;;;;;;;;;0.00;0.00;;;;;13.57;100.00;101015.03;5074634;27;45478;-78
2023/01/11 05:12:51;;;;;;;;;3.00;1.00;;;;;13.56;100.00;101021.50;5092515;27;45719;-79
2023/01/11 05:15:16;;;;;;;;;2.00;2.00;;;;;13.60;100.00;101021.03;5098349;27;45678;-79
2023/01/11 05:17:41;;;;;;;;;2.00;0.00;;;;;13.57;100.00;101031.41;5105444;27;45294;-79
2023/01/11 05:20:07;;;;;;;;;2.00;1.00;;;;;13.44;100.00;101050.09;5093378;27;46452;-79
2023/01/11 05:22:33;;;;;;;;;2.33;2.33;;;;;13.47;100.00;101034.25;5102941;27;45507;-77
2023/01/11 05:24:58;;;;;;;;;2.00;2.00;;;;;13.45;100.00;101038.16;5088714;27;45717;-77
2023/01/11 05:27:23;;;;;;;;;3.00;1.00;;;;;13.40;100.00;101037.78;5101934;27;45435;-79
2023/01/11 05:29:49;;;;;;;;;3.67;2.00;;;;;13.42;100.00;101049.41;5083148;27;47735;-79
2023/01/11 05:32:14;;;;;;;;;4.33;2.00;;;;;13.32;100.00;101062.28;5097288;27;45352;-78
2023/01/11 05:34:39;;;;;;;;;3.00;2.00;;;;;13.29;100.00;101065.34;5072952;27;45497;-77
2023/01/11 05:37:05;;;;;;;;;2.33;2.00;;;;;13.22;100.00;101076.84;5085430;27;45542;-77
2023/01/11 05:39:30;;;;;;;;;2.33;2.00;;;;;13.28;100.00;101080.00;5087174;27;45605;-78
2023/01/11 05:41:56;;;;;;;;;5.00;5.00;;;;;13.15;100.00;101078.50;5080945;27;45247;-77
2023/01/11 05:47:05;;;;;;;;;7.67;2.00;;;;;12.94;100.00;101085.25;5098889;27;45599;-78
2023/01/11 05:49:30;;;;;;;;;3.00;3.00;;;;;12.95;100.00;101087.84;5101447;27;45429;-77
2023/01/11 05:51:56;;;;;;;;;3.67;1.33;;;;;12.93;100.00;101084.41;5102080;27;45246;-77
2023/01/11 05:54:21;;;;;;;;;2.33;2.00;;;;;13.02;100.00;101102.56;5084783;27;45390;-78
2023/01/11 05:56:46;;;;;;;;;4.67;4.00;;;;;13.01;100.00;101103.56;5100443;27;45299;-78
2023/01/11 05:59:12;;;;;;;;;5.00;4.00;;;;;13.05;100.00;101098.66;5066178;27;47817;-77
2023/01/11 06:01:37;;;;;;;;;3.33;3.33;;;;;12.89;100.00;101077.53;5096202;27;45309;-77
2023/01/11 06:04:03;;;;;;;;;6.67;4.33;;;;;13.02;100.00;101110.75;5097979;27;45243;-77
2023/01/11 06:06:28;;;;;;;;;4.00;3.00;;;;;12.98;100.00;101108.50;5097024;27;45314;-77
2023/01/11 06:08:54;;;;;;;;;5.00;3.00;;;;;12.91;100.00;101101.94;5097533;27;46264;-78
2023/01/11 06:11:19;;;;;;;;;2.33;2.00;;;;;12.99;100.00;101099.31;5098151;27;45502;-80
2023/01/11 06:13:44;;;;;;;;;3.67;3.00;;;;;13.01;100.00;101105.44;5086281;27;45247;-81
2023/01/11 06:16:13;;;;;;;;;3.00;1.00;;;;;13.03;100.00;101096.09;5083581;27;45496;-78
2023/01/11 06:18:42;;;;;;;;;3.00;3.00;;;;;13.07;100.00;101118.47;5077076;27;48021;-77
2023/01/11 06:21:08;;;;;;;;;2.00;2.00;;;;;13.06;100.00;101128.53;5095563;27;45287;-78
2023/01/11 06:23:36;;;;;;;;;2.00;2.00;;;;;13.06;100.00;101123.06;5096343;27;45306;-79
2023/01/11 06:26:07;;;;;;;;;2.00;2.00;;;;;13.04;100.00;101130.53;5094237;27;45423;-77
2023/01/11 06:28:35;;;;;;;;;2.00;1.00;;;;;12.94;100.00;101137.06;5094244;27;45558;-79
2023/01/11 06:31:01;;;;;;;;;2.33;2.00;;;;;12.89;100.00;101137.53;5093900;27;45467;-78
2023/01/11 06:33:28;;;;;;;;;3.33;1.00;;;;;12.76;100.00;101150.69;5093427;27;45473;-79
2023/01/11 06:35:54;;;;;;;;;3.33;2.00;;;;;12.74;100.00;101145.38;5097392;27;45269;-78
2023/01/11 06:38:21;;;;;;;;;1.00;1.00;;;;;12.87;100.00;101161.38;5092099;27;45443;-80
2023/01/11 06:40:52;;;;;;;;;1.67;1.67;;;;;12.82;100.00;101164.56;5095084;27;45163;-77
2023/01/11 06:43:18;;;;;;;;;4.00;2.00;;;;;12.74;100.00;101171.78;5091277;27;45388;-81
2023/01/11 06:45:43;;;;;;;;;3.33;3.00;;;;;12.75;100.00;101184.41;5096574;27;45211;-78
2023/01/11 06:48:08;;;;;;;;;6.67;4.00;;;;;12.59;100.00;101174.16;5089571;27;46631;-78
2023/01/11 06:50:34;;;;;;;;;2.67;2.00;;;;;12.53;100.00;101179.38;5078215;27;45421;-77
2023/01/11 06:53:02;;;;;;;;;3.33;2.33;;;;;12.53;100.00;101180.22;5094171;27;45318;-77
2023/01/11 06:55:29;;;;;;;;;1.00;1.00;;;;;12.66;100.00;101188.91;5095819;27;45373;-78
2023/01/11 06:57:55;;;;;;;;;3.00;1.67;;;;;12.59;100.00;101178.75;5093872;27;45558;-78
2023/01/11 07:00:21;;;;;;;;;3.67;2.67;;;;;12.55;100.00;101182.81;5077958;27;45484;-78
2023/01/11 07:02:48;;;;;;;;;3.33;2.00;;;;;12.60;100.00;101181.34;5092110;27;45330;-77
2023/01/11 07:05:14;;;;;;;;;3.67;1.67;;;;;12.74;100.00;101186.28;5090650;27;45448;-77
2023/01/11 07:07:40;;;;;;;;;5.33;3.00;;;;;12.76;100.00;101180.69;5074414;27;47636;-75
2023/01/11 07:10:08;;;;;;;;;1.00;1.00;;;;;12.72;100.00;101190.16;5089053;27;45297;-76
2023/01/11 07:12:35;;;;;;;;;5.00;3.00;;;;;12.71;100.00;101188.47;5093190;27;45311;-77
2023/01/11 07:15:01;;;;;;;;;4.00;3.00;;;;;12.71;100.00;101193.94;5089704;27;45224;-77
2023/01/11 07:17:26;;;;;;;;;2.67;2.00;;;;;12.66;100.00;101196.22;5102353;27;45501;-77
2023/01/11 07:19:52;;;;;;;;;5.00;2.67;;;;;12.65;100.00;101189.06;5096111;27;45357;-77
2023/01/11 07:22:17;;;;;;;;;2.67;2.67;;;;;12.66;100.00;101198.94;5094429;27;45402;-77
2023/01/11 07:24:42;;;;;;;;;4.67;4.00;;;;;12.62;100.00;101195.69;5093928;27;45617;-78
2023/01/11 07:27:08;;;;;;;;;4.33;3.00;;;;;12.54;100.00;101202.88;5096017;27;46376;-79
2023/01/11 07:29:33;;;;;;;;;6.00;1.67;;;;;12.51;100.00;101197.72;5093765;27;45562;-80
2023/01/11 07:31:59;;;;;;;;;5.00;4.00;;;;;12.50;100.00;101202.31;5099324;27;45281;-79
2023/01/11 07:34:24;;;;;;;;;2.00;2.00;;;;;12.45;100.00;101207.38;5087741;27;45490;-78
2023/01/11 07:36:50;;;;;;;;;7.00;3.33;;;;;12.43;100.00;101206.66;5094130;27;45460;-77
2023/01/11 07:39:15;;;;;;;;;3.67;2.33;;;;;12.48;100.00;101224.28;5082332;27;45453;-79
2023/01/11 07:44:25;;;;;;;;;2.33;2.33;;;;;12.48;100.00;101235.19;5090728;27;45487;-79
2023/01/11 07:46:50;;;;;;;;;2.00;1.67;;;;;12.48;100.00;101247.97;5093819;27;45347;-78
2023/01/11 07:49:16;;;;;;;;;5.33;2.33;;;;;12.32;100.00;101254.03;5089029;27;45427;-80
2023/01/11 07:51:41;;;;;;;;;4.00;2.00;;;;;12.33;100.00;101266.66;5095100;27;45680;-79
2023/01/11 07:54:06;;;;;;;;;1.67;1.00;;;;;12.28;100.00;101279.84;5095427;27;45515;-78
2023/01/11 07:56:32;;;;;;;;;2.00;2.00;;;;;12.24;100.00;101280.28;5096823;27;46302;-79
2023/01/11 07:58:57;;;;;;;;;6.33;2.33;;;;;12.15;100.00;101273.84;5095054;27;45547;-77
2023/01/11 08:01:23;;;;;;;;;3.00;1.00;;;;;12.06;100.00;101300.06;5077212;27;45390;-78
2023/01/11 08:03:49;;;;;;;;;2.00;2.00;;;;;12.14;100.00;101298.50;5096331;27;45560;-77
2023/01/11 08:06:15;;;;;;;;;5.00;3.00;;;;;12.15;100.00;101301.06;5099452;27;46323;-80
2023/01/11 08:08:41;;;;;;;;;6.00;4.00;;;;;12.21;100.00;101300.50;5096225;27;45393;-77
2023/01/11 08:16:34;;;;;;;;;5.33;3.00;;;;;12.21;100.00;101319.56;5101394;27;45354;-78
2023/01/11 08:19:00;;;;;;;;;2.00;1.00;;;;;12.10;100.00;101319.72;5102691;27;45242;-79
2023/01/11 08:21:26;;;;;;;;;4.67;3.00;;;;;12.21;100.00;101322.28;5100100;27;47180;-78
2023/01/11 08:23:53;;;;;;;;;11.33;5.67;;;;;12.20;100.00;101326.00;5104252;27;45529;-76
2023/01/11 08:26:18;;;;;;;;;3.33;3.33;;;;;12.21;100.00;101327.72;5098786;27;46386;-78
2023/01/11 08:28:45;;;;;;;;;0.00;0.00;;;;;12.28;100.00;101339.78;5100236;27;45346;-77
2023/01/11 08:31:10;;;;;;;;;3.33;3.33;;;;;12.17;100.00;101336.34;5078526;27;45497;-78
2023/01/11 08:33:36;;;;;;;;;6.00;3.00;;;;;12.11;100.00;101348.69;5095476;27;45353;-81
2023/01/11 08:36:05;;;;;;;;;2.00;2.00;;;;;12.20;100.00;101355.97;5093008;27;46254;-79
2023/01/11 08:38:31;;;;;;;;;5.00;2.00;;;;;12.30;100.00;101364.16;5087361;27;45457;-77
2023/01/11 08:40:56;;;;;;;;;9.00;2.67;;;;;12.19;100.00;101357.00;5096326;27;45337;-79
2023/01/11 08:43:22;;;;;;;;;8.67;5.00;;;;;12.11;100.00;101354.13;5089264;27;45366;-79
2023/01/11 08:45:49;;;;;;;;;2.00;2.00;;;;;12.16;100.00;101370.03;5096830;27;45660;-81
2023/01/11 08:48:14;;;;;;;;;7.33;4.00;;;;;12.12;100.00;101372.22;5104066;27;44863;-79
2023/01/11 08:50:40;;;;;;;;;5.00;2.00;;;;;12.16;100.00;101368.19;5100723;27;46181;-81
2023/01/11 08:53:05;;;;;;;;;9.33;3.00;;;;;12.07;100.00;101378.06;5099635;27;45484;-80
2023/01/11 08:55:31;;;;;;;;;3.67;1.33;;;;;12.03;100.00;101386.69;5096018;27;46618;-79
2023/01/11 08:57:56;;;;;;;;;5.00;2.00;;;;;12.06;100.00;101383.66;5099656;27;45252;-79
2023/01/11 09:00:21;;;;;;;;;4.00;4.00;;;;;12.11;100.00;101389.56;5095421;27;45865;-78
2023/01/11 09:02:47;;;;;;;;;7.67;4.00;;;;;12.05;100.00;101392.84;5099752;27;45328;-78
2023/01/11 09:05:12;;;;;;;;;5.33;1.67;;;;;12.06;100.00;101395.41;5093457;27;45512;-78
2023/01/11 09:07:38;;;;;;;;;2.67;2.33;;;;;12.19;100.00;101400.59;5079918;27;45481;-77
2023/01/11 09:10:04;;;;;;;;;2.00;2.00;;;;;12.33;100.00;101388.41;5093405;27;45331;-79
2023/01/11 09:12:31;;;;;;;;;4.67;4.00;;;;;12.26;100.00;101407.19;5073990;27;45337;-78
2023/01/11 09:14:57;;;;;;;;;6.00;3.00;;;;;12.21;100.00;101398.56;5074804;27;47733;-79
2023/01/11 09:17:22;;;;;;;;;4.00;2.33;;;;;12.29;100.00;101406.88;5085473;27;45353;-79
2023/01/11 09:19:47;;;;;;;;;3.33;2.00;;;;;12.21;100.00;101416.78;5096878;27;45432;-80
2023/01/11 09:22:13;;;;;;;;;2.33;2.00;;;;;12.29;100.00;101425.97;5100023;27;45268;-77
2023/01/11 09:24:38;;;;;;;;;4.33;2.67;;;;;12.10;100.00;101431.41;5081516;27;48522;-79
2023/01/11 09:27:05;;;;;;;;;3.67;3.00;;;;;12.09;100.00;101427.81;5095716;27;45301;-79
2023/01/11 09:29:31;;;;;;;;;8.67;4.00;;;;;12.05;100.00;101428.25;5100791;27;45446;-79
2023/01/11 09:31:56;;;;;;;;;4.33;4.33;;;;;12.10;100.00;101428.69;5083430;27;45313;-80
2023/01/11 09:34:23;;;;;;;;;6.00;3.00;;;;;11.98;100.00;101436.09;5081559;27;45416;-80
2023/01/11 09:36:49;;;;;;;;;6.00;3.00;;;;;11.93;100.00;101432.09;5075419;27;45646;-79
2023/01/11 09:39:17;;;;;;;;;5.00;4.67;;;;;11.81;100.00;101425.91;5098199;27;45326;-79
2023/01/11 09:42:07;;;;;;;;;3.33;2.33;;;;;12.01;100.00;101443.13;5097222;27;45321;-80
2023/01/11 09:44:53;;;;;;;;;12.00;2.67;;;;;12.06;100.00;101443.56;5096302;27;45497;-78
2023/01/11 09:47:27;;;;;;;;;5.67;2.67;;;;;12.12;100.00;101453.94;5095676;27;45350;-78
2023/01/11 09:49:57;;;;;;;;;8.67;6.00;;;;;12.05;100.00;101447.31;5083139;27;45459;-79
2023/01/11 09:52:42;;;;;;;;;4.00;2.00;;;;;12.01;100.00;101451.31;5080144;27;45390;-79
2023/01/11 09:55:20;;;;;;;;;3.33;2.00;;;;;11.86;100.00;101460.88;5095795;27;46263;-79
2023/01/11 09:58:17;;;;;;;;;1.00;1.00;;;;;11.78;100.00;101477.03;5094280;27;45702;-80
2023/01/11 10:00:48;;;;;;;;;3.67;3.00;;;;;11.85;100.00;101478.22;5095165;27;45452;-78
2023/01/11 10:03:35;;;;;;;;;3.00;3.00;;;;;11.87;100.00;101492.56;5083099;27;45467;-79
2023/01/11 10:06:17;;;;;;;;;4.00;2.33;;;;;11.92;100.00;101490.25;5094385;27;46543;-79
2023/01/11 10:08:52;;;;;;;;;2.67;2.67;;;;;11.97;100.00;101490.72;5082631;27;45483;-78
2023/01/11 10:11:51;;;;;;;;;2.33;2.33;;;;;11.91;100.00;101491.25;5080878;28;45441;-78
2023/01/11 10:14:34;;;;;;;;;6.33;3.00;;;;;11.97;100.00;101497.03;5075341;27;45183;-78
2023/01/11 10:17:03;;;;;;;;;4.00;4.00;;;;;11.97;100.00;101509.81;5083262;27;46257;-78
2023/01/11 10:19:38;;;;;;;;;8.33;2.67;;;;;11.94;100.00;101488.28;5096692;27;45221;-79
2023/01/11 10:22:17;;;;;;;;;4.00;3.00;;;;;12.01;100.00;101501.19;5081749;27;45431;-79
2023/01/11 10:24:50;;;;;;;;;2.67;2.67;;;;;12.02;100.00;101502.06;5100952;27;46406;-79
2023/01/11 10:27:39;;;;;;;;;3.67;3.67;;;;;11.98;100.00;101503.34;5084941;27;46694;-79
2023/01/11 10:37:11;;;;;;;;;3.00;2.00;;;;;12.09;100.00;101508.66;5094154;27;45447;-78
2023/01/11 10:40:16;;;;;;;;;4.67;4.67;;;;;12.08;100.00;101513.25;5070767;27;47044;-81
2023/01/11 10:42:52;;;;;;;;;3.67;2.67;;;;;12.14;100.00;101511.81;5092341;27;45680;-80
2023/01/11 10:45:24;;;;;;;;;4.33;3.00;;;;;12.25;100.00;101511.72;5082373;27;45436;-79
2023/01/11 10:48:10;;;;;;;;;3.33;2.00;;;;;12.13;100.00;101507.38;5075595;27;45570;-79
2023/01/11 10:50:42;;;;;;;;;4.33;2.00;;;;;12.07;100.00;101505.22;5096389;27;46282;-78
2023/01/11 10:53:34;;;;;;;;;3.00;2.00;;;;;12.24;100.00;101501.81;5078783;27;45323;-82
2023/01/11 10:56:10;;;;;;;;;3.67;1.00;;;;;12.24;100.00;101509.13;5092342;27;45382;-79
2023/01/11 10:58:52;;;;;;;;;1.33;1.33;;;;;12.31;100.00;101521.19;5079837;27;45424;-80
2023/01/11 11:01:31;;;;;;;;;4.67;2.67;;;;;12.22;100.00;101525.63;5075053;27;48121;-79
2023/01/11 11:04:19;;;;;;;;;5.00;3.33;;;;;12.33;100.00;101525.50;5090791;27;45362;-79
2023/01/11 11:07:11;;;;;;;;;1.00;1.00;;;;;12.40;100.00;101523.94;5093401;27;45349;-79
2023/01/11 11:09:42;;;;;;;;;4.33;2.00;;;;;12.29;100.00;101521.31;5089961;27;45277;-80
2023/01/11 11:12:21;;;;;;;;;3.00;3.00;;;;;12.42;100.00;101548.31;5102816;27;45512;-81
2023/01/11 11:15:16;;;;;;;;;6.00;3.00;;;;;12.37;100.00;101532.38;5095171;27;45661;-79
2023/01/11 11:17:48;;;;;;;;;2.00;1.00;;;;;12.46;100.00;101534.28;5091752;27;45249;-79
2023/01/11 11:20:16;;;;;;;;;4.33;2.00;;;;;12.42;100.00;101535.53;5100038;27;47728;-80
2023/01/11 11:22:43;;;;;;;;;2.00;2.00;;;;;12.59;100.00;101547.63;5083076;27;47338;-81
2023/01/11 11:25:17;;;;;;;;;3.33;3.33;;;;;12.42;100.00;101542.84;5095323;27;45426;-81
2023/01/11 11:27:54;;;;;;;;;3.00;3.00;;;;;12.55;100.00;101548.91;5098880;27;45216;-82
2023/01/11 11:30:30;;;;;;;;;5.33;2.33;;;;;12.54;100.00;101549.06;5097723;27;45599;-80
2023/01/11 11:33:01;;;;;;;;;6.67;5.00;;;;;12.56;100.00;101544.34;5075965;28;48269;-82
2023/01/11 11:35:33;;;;;;;;;4.00;3.00;;;;;12.96;100.00;101542.31;5098142;27;45466;-80
2023/01/11 11:37:59;;;;;;;;;2.00;2.00;;;;;13.21;100.00;101547.22;5076808;27;45429;-82
2023/01/11 11:40:37;;;;;;;;;3.00;3.00;;;;;13.30;100.00;101541.88;5097489;27;45475;-81
2023/01/11 11:43:11;;;;;;;;;5.00;4.00;;;;;13.41;100.00;101552.63;5103302;27;45433;-80
2023/01/11 11:45:49;;;;;;;;;4.00;3.00;;;;;13.08;100.00;101545.75;5097535;27;45374;-79
2023/01/11 11:48:14;;;;;;;;;3.00;2.00;;;;;12.95;100.00;101553.38;5094350;27;45235;-80
2023/01/11 11:50:40;;;;;;;;;4.67;3.67;;;;;13.02;100.00;101547.19;5093132;27;45427;-80
2023/01/11 11:53:06;;;;;;;;;5.00;4.00;;;;;13.06;100.00;101547.78;5077779;27;47163;-79
2023/01/11 11:55:33;;;;;;;;;4.00;4.00;;;;;13.08;100.00;101541.16;5078225;27;45503;-79
2023/01/11 11:58:05;;;;;;;;;5.33;2.00;;;;;13.35;100.00;101558.69;5094681;27;45322;-80
2023/01/11 12:00:43;;;;;;;;;5.33;3.00;;;;;13.10;100.00;101544.59;5093826;27;45362;-79
2023/01/11 12:03:22;;;;;;;;;2.67;2.00;;;;;13.07;100.00;101554.97;5092037;27;46296;-82
2023/01/11 12:06:00;;;;;;;;;6.33;3.67;;;;;12.93;100.00;101539.88;5075667;28;45476;-82